createdAt,value
2019-06-26T00:03:24.518Z,98
2019-06-26T00:13:26.404Z,99
2019-06-26T00:23:24.095Z,99
2019-06-26T00:33:24.089Z,99
2019-06-26T00:43:24.441Z,99
2019-06-26T00:53:24.142Z,99
2019-06-26T01:03:24.210Z,99
2019-06-26T01:13:24.256Z,99
2019-06-26T01:23:24.318Z,99
2019-06-26T01:33:24.447Z,99
2019-06-26T01:43:24.238Z,99
2019-06-26T01:53:24.364Z,99
2019-06-26T02:03:24.259Z,99
2019-06-26T02:13:24.282Z,99
2019-06-26T02:23:24.414Z,99
2019-06-26T02:33:24.390Z,99
2019-06-26T02:43:31.652Z,99
2019-06-26T03:03:24.400Z,99
2019-06-26T03:13:29.145Z,99
2019-06-26T03:23:24.421Z,99
2019-06-26T03:33:24.653Z,99
2019-06-26T03:43:26.132Z,99
2019-06-26T03:53:24.524Z,99
2019-06-26T03:57:51.175Z,99
2019-06-26T04:03:24.518Z,99
2019-06-26T04:13:24.578Z,99
2019-06-26T04:23:24.582Z,99
2019-06-26T04:33:24.573Z,99
2019-06-26T04:43:24.589Z,99
2019-06-26T04:53:24.623Z,99
2019-06-26T05:03:24.629Z,99
2019-06-26T05:13:24.685Z,99
2019-06-26T05:23:24.660Z,99
2019-06-26T05:33:25.272Z,99
2019-06-26T05:43:24.741Z,99
2019-06-26T05:53:27.465Z,99
2019-06-26T06:03:25.380Z,99
2019-06-26T06:13:25.053Z,99
2019-06-26T06:23:24.747Z,99
2019-06-26T06:33:25.881Z,99
2019-06-26T06:43:24.872Z,99
2019-06-26T06:53:24.861Z,99
2019-06-26T07:03:24.897Z,99
2019-06-26T07:13:25.144Z,99
2019-06-26T07:23:24.958Z,99
2019-06-26T07:33:24.901Z,99
2019-06-26T07:43:24.965Z,99
2019-06-26T07:53:24.975Z,99
2019-06-26T08:03:24.989Z,99
2019-06-26T08:13:24.990Z,99
2019-06-26T08:23:25.023Z,99
2019-06-26T08:33:25.032Z,99
2019-06-26T08:43:24.998Z,99
2019-06-26T08:53:25.774Z,99
2019-06-26T09:03:25.108Z,99
2019-06-26T09:13:25.071Z,99
2019-06-26T09:23:25.122Z,99
2019-06-26T09:33:25.188Z,99
2019-06-26T09:43:25.169Z,99
2019-06-26T09:53:25.160Z,99
2019-06-26T10:03:25.198Z,96
2019-06-26T10:13:25.319Z,92
2019-06-26T10:23:26.144Z,88
2019-06-26T10:33:25.156Z,85
2019-06-26T10:43:25.267Z,78
2019-06-26T10:53:25.300Z,74
2019-06-26T11:03:25.383Z,72
2019-06-26T11:13:25.396Z,67
2019-06-26T11:23:25.306Z,65
2019-06-26T11:33:25.671Z,61
2019-06-26T11:43:26.175Z,60
2019-06-26T11:53:25.903Z,57
2019-06-26T12:03:25.602Z,57
2019-06-26T12:13:25.435Z,53
2019-06-26T12:23:25.411Z,52
2019-06-26T12:33:25.927Z,52
2019-06-26T12:43:25.471Z,50
2019-06-26T12:53:25.569Z,49
2019-06-26T13:03:25.550Z,51
2019-06-26T13:13:25.524Z,51
2019-06-26T13:23:25.593Z,49
2019-06-26T13:33:25.665Z,49
2019-06-26T13:43:25.618Z,48
2019-06-26T13:53:25.733Z,48
2019-06-26T14:03:25.680Z,48
2019-06-26T14:13:25.627Z,48
2019-06-26T14:23:25.626Z,48
2019-06-26T14:33:25.669Z,47
2019-06-26T14:43:25.721Z,48
2019-06-26T14:53:25.759Z,48
2019-06-26T15:03:25.813Z,48
2019-06-26T15:13:25.762Z,49
2019-06-26T15:23:25.761Z,49
2019-06-26T15:33:25.808Z,50
2019-06-26T15:43:25.813Z,50
2019-06-26T15:53:26.061Z,53
2019-06-26T16:03:25.863Z,56
2019-06-26T16:13:25.925Z,56
2019-06-26T16:23:25.987Z,57
2019-06-26T16:33:25.962Z,58
2019-06-26T16:43:25.953Z,58
2019-06-26T16:53:26.025Z,59
2019-06-26T17:03:26.033Z,60
2019-06-26T17:13:26.044Z,61
2019-06-26T17:23:26.241Z,62
2019-06-26T17:33:26.489Z,64
2019-06-26T17:43:26.101Z,64
2019-06-26T17:53:26.254Z,65
2019-06-26T18:03:26.205Z,67
2019-06-26T18:13:26.115Z,69
2019-06-26T18:16:44.530Z,69
2019-06-26T18:23:36.958Z,71
2019-06-26T18:33:26.168Z,74
2019-06-26T18:43:26.189Z,76
2019-06-26T18:53:26.238Z,77
2019-06-26T19:03:26.781Z,78
2019-06-26T19:13:26.225Z,79
2019-06-26T19:23:26.247Z,81
2019-06-26T19:33:26.251Z,84
2019-06-26T19:43:26.287Z,86
2019-06-26T19:53:26.323Z,88
2019-06-26T20:03:26.278Z,89
2019-06-26T20:13:26.386Z,90
2019-06-26T20:23:26.482Z,92
2019-06-26T20:33:27.718Z,95
2019-06-26T20:43:26.554Z,98
2019-06-26T20:53:27.931Z,99
2019-06-26T21:03:26.440Z,99
2019-06-26T21:13:26.461Z,99
2019-06-26T21:23:26.492Z,99
2019-06-26T21:33:26.616Z,99
2019-06-26T21:43:26.496Z,99
2019-06-26T21:53:26.471Z,99
2019-06-26T22:03:26.601Z,99
2019-06-26T22:13:26.928Z,99
2019-06-26T22:23:26.511Z,99
2019-06-26T22:33:26.559Z,99
2019-06-26T22:43:26.637Z,99
2019-06-26T22:53:26.619Z,99
2019-06-26T23:03:26.650Z,99
2019-06-26T23:13:28.291Z,99
2019-06-26T23:23:26.720Z,99
2019-06-26T23:33:30.266Z,99
2019-06-26T23:43:29.347Z,99
2019-06-26T23:53:30.583Z,99
